Time;durP1;ratioP1;P1;durP2;ratioP2;P2;SDS_P1;SDS_P2;PMS_P1;PMS_P2;Temp;Humidity;BMP_temperature;BMP_pressure;BME280_temperature;BME280_humidity;BME280_pressure;Samples;Min_cycle;Max_cycle;Signal;HPM_P1;HPM_P2
2021/07/14 00:00:13;;;;;;;11.50;4.70;;;;;;;14.40;83.46;99798.19;4958315;28;20035;-64
2021/07/14 00:02:38;;;;;;;10.07;5.00;;;;;;;14.34;84.04;99794.66;4960311;28;20544;-64
2021/07/14 00:05:12;;;;;;;7.07;4.22;;;;;;;14.35;83.41;99794.38;4950200;28;20032;-64
2021/07/14 00:07:38;;;;;;;9.07;4.75;;;;;;;14.38;83.59;99790.34;4955179;28;20045;-64
2021/07/14 00:10:33;;;;;;;10.73;4.57;;;;;;;14.27;84.01;99794.09;4947746;28;20031;-64
2021/07/14 00:23:33;;;;;;;5.07;3.15;;;;;;;14.38;82.23;99797.63;4951629;28;20034;-64
2021/07/14 00:25:58;;;;;;;4.40;3.20;;;;;;;14.33;81.57;99793.03;4935352;28;20039;-64
2021/07/14 00:28:24;;;;;;;3.33;2.92;;;;;;;14.27;83.01;99794.91;4949796;28;20367;-64
2021/07/14 00:30:54;;;;;;;7.53;3.33;;;;;;;14.12;83.66;99792.13;4951185;28;20035;-64
2021/07/14 00:33:20;;;;;;;8.10;3.60;;;;;;;14.05;83.12;99792.38;4949308;28;20038;-64
2021/07/14 00:35:45;;;;;;;5.78;3.25;;;;;;;13.96;82.84;99783.13;4952649;28;20051;-64
2021/07/14 00:38:12;;;;;;;4.75;3.22;;;;;;;13.96;83.22;99783.13;4942480;28;20111;-64
2021/07/14 00:40:37;;;;;;;3.90;3.03;;;;;;;13.85;82.40;99785.78;4935125;28;20028;-64
2021/07/14 00:43:03;;;;;;;4.53;3.22;;;;;;;13.72;83.52;99784.38;4953776;28;20042;-65
2021/07/14 00:45:29;;;;;;;5.47;3.03;;;;;;;13.59;84.86;99787.56;4944123;28;20088;-64
2021/07/14 00:47:57;;;;;;;5.22;3.00;;;;;;;13.68;82.81;99783.28;4959347;28;20449;-64
2021/07/14 00:50:24;;;;;;;8.65;2.97;;;;;;;13.75;82.40;99791.16;4961805;28;20031;-64
2021/07/14 00:52:49;;;;;;;5.85;3.70;;;;;;;13.85;81.58;99798.53;4952396;28;20093;-65
2021/07/14 00:55:15;;;;;;;3.42;2.85;;;;;;;13.92;81.04;99796.38;4949190;28;20365;-64
2021/07/14 00:57:41;;;;;;;3.13;2.55;;;;;;;13.94;80.77;99790.69;4946867;28;20027;-64
2021/07/14 01:00:09;;;;;;;5.57;3.03;;;;;;;13.93;80.94;99786.34;4959597;28;20038;-65
2021/07/14 01:02:35;;;;;;;7.18;2.65;;;;;;;13.94;80.88;99791.53;4946568;28;20393;-65
2021/07/14 01:05:07;;;;;;;6.75;2.83;;;;;;;14.00;79.68;99786.94;4952224;28;20102;-64
2021/07/14 01:07:50;;;;;;;7.47;2.53;;;;;;;14.00;80.27;99787.75;4938347;29;20038;-64
2021/07/14 01:10:23;;;;;;;3.45;2.95;;;;;;;13.96;80.60;99797.50;4950142;28;20035;-64
2021/07/14 01:13:07;;;;;;;3.55;2.50;;;;;;;13.95;80.11;99792.31;4967644;28;20038;-64
2021/07/14 01:15:55;;;;;;;5.60;2.30;;;;;;;13.82;81.03;99790.91;4949521;28;20560;-65
2021/07/14 01:18:31;;;;;;;5.50;2.67;;;;;;;13.76;81.35;99793.59;4943116;28;20035;-64
2021/07/14 01:21:15;;;;;;;4.47;2.58;;;;;;;13.74;81.37;99797.63;4603267;28;10000357;-64
2021/07/14 01:23:40;;;;;;;3.57;2.60;;;;;;;13.74;81.69;99797.63;4943122;28;20170;-64
2021/07/14 01:26:15;;;;;;;4.95;3.00;;;;;;;13.61;82.04;99804.34;4954465;28;20385;-64
2021/07/14 01:28:44;;;;;;;4.63;2.63;;;;;;;13.51;82.39;99810.50;4965098;28;20053;-64
2021/07/14 01:31:18;;;;;;;6.60;2.97;;;;;;;13.49;83.16;99809.13;4955970;28;20039;-64
2021/07/14 01:33:45;;;;;;;4.95;3.00;;;;;;;13.48;82.64;99811.00;4945422;28;20031;-64
2021/07/14 01:36:15;;;;;;;7.57;3.50;;;;;;;13.42;83.92;99815.59;4947861;28;20133;-65
2021/07/14 01:38:44;;;;;;;3.30;3.00;;;;;;;13.43;83.99;99809.09;4953287;28;20023;-64
2021/07/14 01:41:13;;;;;;;4.20;2.92;;;;;;;13.26;84.53;99816.53;4945125;28;20114;-64
2021/07/14 01:43:42;;;;;;;8.48;3.22;;;;;;;13.19;84.82;99819.44;4965227;28;20031;-64
2021/07/14 01:46:09;;;;;;;7.72;3.05;;;;;;;13.16;85.05;99809.91;4950361;28;20035;-65
2021/07/14 01:48:40;;;;;;;5.90;3.58;;;;;;;13.08;85.14;99818.50;4948292;28;20121;-65
2021/07/14 01:51:08;;;;;;;8.57;3.42;;;;;;;13.02;85.95;99822.25;4954025;29;20035;-64
2021/07/14 01:53:37;;;;;;;7.28;3.65;;;;;;;13.00;86.01;99816.28;4941594;28;20027;-65
2021/07/14 01:56:08;;;;;;;6.70;4.22;;;;;;;13.07;85.92;99825.00;4970735;28;20039;-65
2021/07/14 01:58:46;;;;;;;5.20;3.40;;;;;;;13.13;85.42;99826.66;4950845;28;20031;-64
2021/07/14 02:01:17;;;;;;;5.43;3.90;;;;;;;13.16;85.26;99822.66;4967151;28;20038;-64
2021/07/14 02:06:29;;;;;;;7.18;3.90;;;;;;;13.26;85.47;99822.72;4959329;28;20054;-64
2021/07/14 02:08:54;;;;;;;11.98;4.15;;;;;;;13.52;84.47;99819.44;4946874;28;20039;-65
2021/07/14 02:11:24;;;;;;;8.60;3.80;;;;;;;13.69;83.54;99813.84;4959572;28;20042;-64
2021/07/14 02:13:52;;;;;;;5.68;4.28;;;;;;;13.77;83.07;99818.75;4955440;28;20050;-64
2021/07/14 02:16:18;;;;;;;7.43;4.50;;;;;;;13.77;83.41;99821.47;4949635;28;20063;-64
2021/07/14 02:18:50;;;;;;;5.75;3.85;;;;;;;13.78;83.44;99814.97;4945575;28;20157;-64
2021/07/14 02:21:15;;;;;;;5.93;3.97;;;;;;;13.76;83.42;99815.25;4950335;28;20037;-64
2021/07/14 02:23:41;;;;;;;6.82;4.38;;;;;;;13.78;83.29;99825.00;4961931;28;20036;-64
2021/07/14 02:26:07;;;;;;;8.15;4.20;;;;;;;13.80;83.42;99828.28;4952668;28;20122;-64
2021/07/14 02:28:32;;;;;;;5.53;4.70;;;;;;;13.79;83.28;99835.56;4951213;28;20027;-64
2021/07/14 02:30:58;;;;;;;9.57;4.72;;;;;;;13.76;83.55;99834.22;4952908;28;20175;-64
2021/07/14 02:33:24;;;;;;;9.05;4.78;;;;;;;13.76;83.72;99834.22;4951022;28;20042;-64
2021/07/14 02:35:53;;;;;;;7.78;4.82;;;;;;;13.71;84.13;99830.63;4951735;28;20059;-64
2021/07/14 02:38:24;;;;;;;7.60;4.80;;;;;;;13.69;84.16;99840.91;4953707;28;20036;-64
2021/07/14 02:40:57;;;;;;;11.15;4.40;;;;;;;13.66;84.12;99834.16;4940642;28;20126;-64
2021/07/14 02:43:27;;;;;;;6.75;4.80;;;;;;;13.56;84.72;99836.78;4954895;28;20041;-64
2021/07/14 02:45:57;;;;;;;7.78;5.18;;;;;;;13.44;85.43;99840.50;4947113;28;20448;-64
2021/07/14 02:48:24;;;;;;;8.50;5.03;;;;;;;13.37;85.88;99839.03;4938581;28;20031;-63
2021/07/14 02:50:52;;;;;;;7.60;4.93;;;;;;;13.22;86.45;99831.59;4940288;28;20043;-64
2021/07/14 02:53:22;;;;;;;8.82;6.03;;;;;;;13.11;87.55;99836.13;4961673;28;20035;-64
2021/07/14 02:55:54;;;;;;;9.00;6.13;;;;;;;13.09;87.98;99830.97;4943971;28;20042;-64
2021/07/14 02:58:23;;;;;;;8.35;6.28;;;;;;;13.09;87.93;99833.66;4953836;28;20085;-64
2021/07/14 03:00:50;;;;;;;7.43;6.03;;;;;;;13.01;88.07;99837.66;4947081;28;20143;-64
2021/07/14 03:03:16;;;;;;;10.45;7.07;;;;;;;13.00;88.29;99837.91;4951189;28;20405;-64
2021/07/14 03:05:42;;;;;;;9.95;7.00;;;;;;;12.99;88.60;99844.38;4951874;28;20038;-64
2021/07/14 03:08:14;;;;;;;9.98;6.43;;;;;;;12.91;88.19;99834.88;4951143;28;20117;-65
2021/07/14 03:10:43;;;;;;;10.13;6.20;;;;;;;12.82;88.81;99839.09;4950662;28;20393;-64
2021/07/14 03:13:09;;;;;;;12.63;6.75;;;;;;;12.79;88.55;99835.00;4945896;28;20064;-65
2021/07/14 03:15:38;;;;;;;11.25;7.80;;;;;;;12.86;89.21;99840.22;4941479;28;20040;-64
2021/07/14 03:18:07;;;;;;;9.18;6.78;;;;;;;12.88;89.13;99841.59;4942415;28;20110;-64
2021/07/14 03:20:35;;;;;;;14.38;6.85;;;;;;;12.79;89.13;99840.41;4956191;28;20027;-64
2021/07/14 03:23:02;;;;;;;8.23;6.35;;;;;;;12.67;89.15;99839.75;4948389;28;20062;-64
2021/07/14 03:25:28;;;;;;;9.15;6.97;;;;;;;12.58;89.66;99842.91;4966180;28;20031;-65
2021/07/14 03:27:55;;;;;;;8.23;6.22;;;;;;;12.49;89.59;99839.03;4955363;28;20038;-65
2021/07/14 03:30:23;;;;;;;9.00;6.43;;;;;;;12.43;89.94;99840.88;4958677;28;20182;-65
2021/07/14 03:32:49;;;;;;;10.05;6.63;;;;;;;12.32;89.95;99849.88;4951468;28;20043;-64
2021/07/14 03:35:15;;;;;;;19.20;7.60;;;;;;;12.33;91.46;99850.72;4920587;28;20062;-64
2021/07/14 03:37:43;;;;;;;10.50;6.75;;;;;;;12.22;91.16;99850.59;4948342;28;20031;-64
2021/07/14 03:40:11;;;;;;;16.15;7.25;;;;;;;12.20;91.59;99862.69;4952798;28;20031;-64
2021/07/14 03:42:38;;;;;;;10.68;7.35;;;;;;;12.24;91.86;99859.25;4940988;28;20390;-64
2021/07/14 03:45:06;;;;;;;11.82;7.85;;;;;;;12.16;91.57;99851.59;4947629;28;20039;-65
2021/07/14 03:47:33;;;;;;;12.20;7.65;;;;;;;12.11;91.58;99849.63;4946437;28;20042;-64
2021/07/14 03:49:59;;;;;;;8.70;7.65;;;;;;;12.12;92.14;99839.66;4969632;28;20043;-64
2021/07/14 03:52:26;;;;;;;14.75;7.88;;;;;;;12.17;92.17;99842.41;4954285;28;20047;-64
2021/07/14 03:54:53;;;;;;;12.15;7.32;;;;;;;12.18;91.89;99844.06;4947554;28;20035;-64
2021/07/14 03:57:19;;;;;;;11.43;7.80;;;;;;;12.23;92.02;99845.97;4937760;28;20042;-64
2021/07/14 03:59:45;;;;;;;13.05;7.22;;;;;;;12.30;92.23;99844.75;4928223;29;20055;-64
2021/07/14 04:02:12;;;;;;;13.68;6.72;;;;;;;12.29;91.65;99847.69;4934776;28;20509;-64
2021/07/14 04:04:38;;;;;;;8.88;6.45;;;;;;;12.34;91.73;99852.34;4950401;28;20087;-64
2021/07/14 04:07:24;;;;;;;11.27;6.55;;;;;;;12.38;91.39;99850.78;4954249;28;20437;-64
2021/07/14 04:09:50;;;;;;;10.52;6.70;;;;;;;12.41;91.21;99852.97;4962116;28;20117;-64
2021/07/14 04:12:16;;;;;;;10.30;7.05;;;;;;;12.38;91.36;99854.31;4952434;28;20123;-64
2021/07/14 04:14:42;;;;;;;8.15;6.60;;;;;;;12.39;91.16;99844.31;4948435;28;20575;-64
2021/07/14 04:17:08;;;;;;;9.50;6.03;;;;;;;12.35;91.03;99843.19;4946863;28;20094;-64
2021/07/14 04:19:35;;;;;;;13.52;6.47;;;;;;;12.41;90.78;99851.09;4952969;28;20038;-65
2021/07/14 04:22:04;;;;;;;8.52;5.57;;;;;;;12.37;90.83;99851.84;4946656;28;20035;-64
2021/07/14 04:24:29;;;;;;;8.65;6.30;;;;;;;12.30;91.01;99846.63;4949392;28;20037;-65
2021/07/14 04:26:55;;;;;;;9.48;6.13;;;;;;;12.33;91.05;99838.00;4947902;28;20039;-64
2021/07/14 04:29:20;;;;;;;10.10;6.18;;;;;;;12.30;91.40;99835.81;4948643;28;20040;-64
2021/07/14 04:31:46;;;;;;;9.00;5.20;;;;;;;12.32;90.81;99836.38;4958914;28;20036;-64
2021/07/14 04:34:11;;;;;;;6.38;5.07;;;;;;;12.40;90.38;99835.13;4937610;28;20061;-64
2021/07/14 04:36:37;;;;;;;5.82;5.10;;;;;;;12.48;90.10;99848.19;4953358;28;20039;-65
2021/07/14 04:39:06;;;;;;;6.40;4.97;;;;;;;12.47;90.35;99849.25;4954902;28;20054;-65
2021/07/14 04:41:32;;;;;;;4.80;4.32;;;;;;;12.48;90.12;99853.59;4959113;28;20065;-65
2021/07/14 04:44:01;;;;;;;5.38;4.82;;;;;;;12.46;90.14;99852.22;4938301;29;20536;-64
2021/07/14 04:46:27;;;;;;;8.63;5.30;;;;;;;12.48;90.24;99842.78;4951848;28;20050;-64
2021/07/14 04:48:53;;;;;;;7.60;4.78;;;;;;;12.43;90.14;99853.53;4953293;28;20042;-64
2021/07/14 04:51:20;;;;;;;7.68;4.78;;;;;;;12.46;90.24;99849.53;4953085;28;20388;-64
2021/07/14 04:53:45;;;;;;;10.45;4.15;;;;;;;12.53;89.44;99850.94;4942798;28;20106;-64
2021/07/14 04:56:16;;;;;;;8.23;4.45;;;;;;;12.62;89.22;99855.91;4956994;28;20031;-65
2021/07/14 04:58:45;;;;;;;4.65;3.65;;;;;;;12.70;88.87;99856.28;4955850;28;20037;-65
2021/07/14 05:01:13;;;;;;;8.90;4.32;;;;;;;12.78;88.91;99859.59;4958325;28;20054;-64
2021/07/14 05:03:47;;;;;;;6.18;3.95;;;;;;;12.88;88.38;99860.50;4947984;28;20114;-65
2021/07/14 05:06:17;;;;;;;6.40;3.90;;;;;;;12.96;88.36;99866.53;4946277;28;20027;-65
2021/07/14 05:08:43;;;;;;;5.22;3.70;;;;;;;13.03;87.83;99876.06;4961444;28;20049;-65
2021/07/14 05:11:09;;;;;;;7.13;3.92;;;;;;;13.04;88.07;99876.88;4948195;28;20485;-65
2021/07/14 05:13:35;;;;;;;6.90;4.95;;;;;;;13.10;88.01;99883.16;4952117;28;20038;-65
2021/07/14 05:16:00;;;;;;;7.35;4.50;;;;;;;13.24;87.78;99883.53;4941525;28;20047;-65
2021/07/14 05:18:26;;;;;;;5.75;4.30;;;;;;;13.26;87.61;99884.13;4936043;28;20027;-64
2021/07/14 05:20:52;;;;;;;7.47;4.00;;;;;;;13.38;87.85;99867.72;4950882;28;20039;-65
2021/07/14 05:23:17;;;;;;;6.40;4.00;;;;;;;13.57;86.18;99860.88;4945754;28;20034;-65
2021/07/14 05:25:43;;;;;;;8.00;3.72;;;;;;;13.98;84.21;99863.03;4945661;28;20067;-65
2021/07/14 05:28:09;;;;;;;4.20;3.30;;;;;;;14.34;82.22;99867.81;4946507;28;20401;-65
2021/07/14 05:30:37;;;;;;;9.93;3.88;;;;;;;14.66;80.21;99874.97;4952056;28;20032;-65
2021/07/14 05:33:03;;;;;;;4.35;3.10;;;;;;;14.93;79.20;99877.50;4957695;28;20488;-65
2021/07/14 05:35:29;;;;;;;5.60;3.13;;;;;;;15.25;78.41;99866.69;4914410;28;20098;-65
2021/07/14 05:37:54;;;;;;;6.82;2.90;;;;;;;15.49;77.09;99872.38;4959430;28;20066;-66
2021/07/14 05:40:20;;;;;;;10.32;2.95;;;;;;;15.51;76.78;99875.63;4946128;28;20039;-67
2021/07/14 05:42:46;;;;;;;3.03;2.75;;;;;;;15.54;77.40;99880.53;4950032;28;20379;-67
2021/07/14 05:45:12;;;;;;;4.30;2.72;;;;;;;15.69;76.24;99885.16;4946628;28;20665;-67
2021/07/14 05:47:38;;;;;;;6.50;2.95;;;;;;;16.17;74.74;99895.69;4955754;28;20037;-67
2021/07/14 05:50:05;;;;;;;3.92;2.30;;;;;;;16.81;71.34;99892.44;4965548;28;20023;-67
2021/07/14 05:52:31;;;;;;;4.72;2.47;;;;;;;16.91;71.41;99895.09;4947260;28;20035;-67
2021/07/14 05:54:56;;;;;;;5.30;2.85;;;;;;;16.88;71.58;99889.38;4945276;28;20031;-67
2021/07/14 05:57:22;;;;;;;7.38;2.80;;;;;;;16.69;72.62;99890.03;4944578;28;20035;-66
2021/07/14 05:59:47;;;;;;;8.70;2.72;;;;;;;16.50;72.41;99892.56;4950216;28;20047;-66
2021/07/14 06:02:13;;;;;;;4.18;3.03;;;;;;;16.50;73.76;99890.66;4936792;28;20036;-65
2021/07/14 06:04:38;;;;;;;2.50;2.25;;;;;;;16.47;73.99;99901.28;4943180;28;20035;-65
2021/07/14 06:07:04;;;;;;;5.47;2.40;;;;;;;16.40;73.63;99896.16;4949165;28;20031;-65
2021/07/14 06:09:31;;;;;;;9.38;2.63;;;;;;;16.39;73.64;99902.69;4944269;28;20066;-66
2021/07/14 06:11:56;;;;;;;5.90;2.22;;;;;;;16.31;73.84;99892.38;4952387;28;20091;-65
2021/07/14 06:14:22;;;;;;;5.45;2.65;;;;;;;16.12;74.81;99898.41;4948749;28;20051;-66
2021/07/14 06:16:47;;;;;;;3.33;2.17;;;;;;;16.29;74.22;99900.78;4950008;28;20035;-66
2021/07/14 06:19:13;;;;;;;4.03;2.33;;;;;;;16.35;74.66;99904.31;4950681;28;20039;-68
2021/07/14 06:21:38;;;;;;;3.83;2.35;;;;;;;16.24;74.79;99903.53;4951680;28;20058;-67
2021/07/14 06:24:05;;;;;;;4.63;2.20;;;;;;;16.21;74.11;99899.47;4950542;28;20020;-67
2021/07/14 06:26:30;;;;;;;5.38;2.58;;;;;;;16.24;74.30;99900.81;4944173;28;20137;-66
2021/07/14 06:28:56;;;;;;;4.45;2.50;;;;;;;16.44;73.45;99905.38;4605162;28;10000557;-66
2021/07/14 06:31:23;;;;;;;5.20;2.25;;;;;;;16.43;73.64;99908.34;4935724;28;20040;-65
2021/07/14 06:33:48;;;;;;;4.93;2.15;;;;;;;16.63;73.05;99913.72;4932657;28;20042;-67
2021/07/14 06:36:14;;;;;;;6.15;2.60;;;;;;;16.62;72.90;99906.63;4951283;28;20049;-65
2021/07/14 06:38:39;;;;;;;5.40;2.17;;;;;;;16.72;72.96;99913.13;4950836;28;20784;-64
2021/07/14 06:41:05;;;;;;;6.97;2.60;;;;;;;16.72;72.41;99916.66;4939922;28;20552;-66
2021/07/14 06:43:45;;;;;;;3.95;2.40;;;;;;;16.75;72.25;99918.00;4946274;28;20043;-66
2021/07/14 06:46:13;;;;;;;11.48;2.30;;;;;;;16.81;71.94;99916.91;4931598;28;20042;-66
2021/07/14 06:48:40;;;;;;;2.45;2.05;;;;;;;16.85;72.09;99914.44;4942529;28;20054;-65
2021/07/14 06:51:06;;;;;;;4.32;2.30;;;;;;;16.80;72.01;99920.72;4945204;29;20126;-65
2021/07/14 06:53:33;;;;;;;4.93;2.25;;;;;;;16.94;72.31;99920.91;4947019;28;20105;-67
2021/07/14 06:55:59;;;;;;;3.63;2.10;;;;;;;16.97;72.29;99921.22;4947649;28;20035;-65
2021/07/14 06:58:26;;;;;;;4.68;2.60;;;;;;;16.93;71.87;99927.44;4942220;28;20055;-65
2021/07/14 07:00:52;;;;;;;5.88;2.50;;;;;;;16.82;72.41;99923.97;4944254;28;20179;-65
2021/07/14 07:03:18;;;;;;;2.90;2.13;;;;;;;16.82;72.25;99934.88;4954006;28;20039;-65
2021/07/14 07:05:44;;;;;;;3.90;2.33;;;;;;;16.72;72.59;99938.44;4920318;28;20031;-65
2021/07/14 07:08:10;;;;;;;6.20;2.20;;;;;;;16.79;73.08;99929.97;4940056;28;20105;-67
2021/07/14 07:10:35;;;;;;;6.10;2.35;;;;;;;16.83;72.96;99931.03;4937467;28;20523;-65
2021/07/14 07:13:01;;;;;;;7.13;2.42;;;;;;;16.90;72.41;99930.72;4950247;28;20444;-66
2021/07/14 07:15:27;;;;;;;4.20;2.60;;;;;;;16.82;73.12;99929.41;4938541;28;20065;-66
2021/07/14 07:17:53;;;;;;;5.13;2.50;;;;;;;16.91;72.76;99933.19;4949410;28;20039;-67
2021/07/14 07:20:18;;;;;;;4.50;2.40;;;;;;;17.05;72.21;99924.44;4948607;28;20504;-67
2021/07/14 07:22:44;;;;;;;4.18;2.10;;;;;;;17.17;71.64;99934.94;4957103;28;20388;-67
2021/07/14 07:25:12;;;;;;;6.90;2.28;;;;;;;17.35;71.23;99931.56;4952283;28;20473;-67
2021/07/14 07:27:38;;;;;;;6.70;2.45;;;;;;;17.33;71.70;99931.03;4940175;28;20552;-67
2021/07/14 07:30:06;;;;;;;3.25;2.20;;;;;;;17.32;71.31;99932.13;4942681;28;20062;-67
2021/07/14 07:32:34;;;;;;;7.05;2.60;;;;;;;17.55;71.81;99927.88;4938690;28;20430;-67
2021/07/14 07:34:59;;;;;;;3.45;2.30;;;;;;;17.70;70.47;99939.75;4945217;28;20122;-67
2021/07/14 07:37:24;;;;;;;5.50;2.45;;;;;;;17.94;70.05;99934.38;4941825;28;20433;-67
2021/07/14 07:39:51;;;;;;;4.70;2.60;;;;;;;17.96;68.84;99928.59;4936306;28;20572;-67
2021/07/14 07:42:16;;;;;;;3.55;2.45;;;;;;;18.11;69.01;99928.47;4943545;28;20058;-67
2021/07/14 07:44:42;;;;;;;4.30;2.58;;;;;;;17.89;69.74;99930.84;4950512;28;20066;-67
2021/07/14 07:47:08;;;;;;;5.55;2.42;;;;;;;18.16;68.16;99933.09;4950234;28;20035;-67
2021/07/14 07:49:34;;;;;;;2.60;2.10;;;;;;;18.24;68.18;99935.19;4944919;28;20473;-67
2021/07/14 07:52:00;;;;;;;6.60;2.25;;;;;;;18.33;68.16;99940.00;4949492;28;20099;-67
2021/07/14 07:54:26;;;;;;;4.70;2.70;;;;;;;18.33;68.87;99938.06;4933887;29;20039;-67
2021/07/14 07:56:51;;;;;;;4.45;2.63;;;;;;;18.63;67.59;99936.09;4944300;28;20118;-67
2021/07/14 07:59:17;;;;;;;4.03;2.40;;;;;;;18.78;66.98;99932.34;4945991;28;20067;-67
2021/07/14 08:01:42;;;;;;;4.95;2.42;;;;;;;18.98;66.88;99925.84;4945071;28;20043;-67
2021/07/14 08:04:08;;;;;;;3.75;2.50;;;;;;;19.04;66.51;99925.78;4926937;28;20043;-67
2021/07/14 08:06:34;;;;;;;6.43;2.33;;;;;;;18.96;66.28;99928.03;4932997;28;20028;-67
2021/07/14 08:09:00;;;;;;;6.43;3.00;;;;;;;18.84;66.83;99933.09;4929663;29;20179;-67
2021/07/14 08:11:26;;;;;;;6.10;2.90;;;;;;;18.27;68.59;99939.22;4940088;28;20027;-67
2021/07/14 08:13:54;;;;;;;4.93;2.92;;;;;;;18.29;68.62;99942.47;4956235;28;20090;-67
2021/07/14 08:16:21;;;;;;;6.60;2.80;;;;;;;18.47;68.21;99940.09;4948309;28;20031;-67
2021/07/14 08:18:47;;;;;;;5.22;3.10;;;;;;;18.58;68.44;99941.63;4936537;28;20036;-67
2021/07/14 08:21:13;;;;;;;10.27;2.90;;;;;;;18.83;68.34;99936.94;4958573;28;20045;-67
2021/07/14 08:23:39;;;;;;;10.88;2.90;;;;;;;18.43;67.47;99946.13;4948502;28;20031;-67
2021/07/14 08:26:04;;;;;;;4.57;2.85;;;;;;;18.34;68.29;99941.63;4956226;28;20035;-67
2021/07/14 08:28:30;;;;;;;6.45;3.05;;;;;;;18.48;68.63;99944.44;4928578;29;20047;-67
2021/07/14 08:30:55;;;;;;;3.28;2.55;;;;;;;18.63;68.32;99954.38;4604634;28;9999906;-67
2021/07/14 08:33:21;;;;;;;3.90;2.72;;;;;;;18.72;67.24;99945.25;4944068;28;20043;-67
2021/07/14 08:35:46;;;;;;;5.28;2.85;;;;;;;18.78;67.76;99943.25;4951683;28;20035;-67
2021/07/14 08:38:12;;;;;;;4.97;2.83;;;;;;;19.04;66.71;99942.94;4952331;28;20027;-67
2021/07/14 08:40:40;;;;;;;5.65;2.90;;;;;;;18.90;66.74;99939.28;4949742;28;20063;-67
2021/07/14 08:43:07;;;;;;;3.50;2.72;;;;;;;18.81;67.03;99937.22;4948024;28;20074;-67
2021/07/14 08:45:32;;;;;;;4.50;2.80;;;;;;;18.83;67.70;99950.59;4949227;28;20127;-67
2021/07/14 08:47:59;;;;;;;9.10;2.80;;;;;;;19.07;67.51;99949.75;4951098;28;20539;-67
2021/07/14 08:50:24;;;;;;;6.80;2.53;;;;;;;19.10;66.40;99946.44;4953682;28;20489;-67
2021/07/14 08:52:50;;;;;;;2.83;2.63;;;;;;;18.79;67.16;99957.72;4949478;28;20110;-66
2021/07/14 08:55:18;;;;;;;4.13;3.13;;;;;;;18.92;66.63;99948.00;4948034;28;20075;-66
2021/07/14 08:57:45;;;;;;;4.35;2.63;;;;;;;19.19;66.33;99944.66;4948246;28;20058;-64
2021/07/14 09:00:15;;;;;;;4.53;2.80;;;;;;;19.40;66.27;99950.59;4947220;28;20485;-64
2021/07/14 09:02:42;;;;;;;3.53;2.85;;;;;;;19.29;65.51;99957.34;4961236;28;20038;-64
2021/07/14 09:05:09;;;;;;;6.55;2.72;;;;;;;19.25;65.83;99959.84;4957432;28;20035;-64
2021/07/14 09:07:36;;;;;;;4.55;2.58;;;;;;;19.12;66.90;99947.75;4949392;28;20031;-63
2021/07/14 09:10:04;;;;;;;5.72;2.40;;;;;;;19.26;66.52;99947.81;4945422;28;20120;-64
2021/07/14 09:12:37;;;;;;;5.18;2.58;;;;;;;19.22;66.59;99951.44;4953615;28;20405;-64
2021/07/14 09:15:04;;;;;;;;;;;;;;;19.04;66.71;99944.88;4965771;28;20047;-64
2021/07/14 09:17:30;;;;;;;2.53;2.15;;;;;;;19.04;66.61;99947.59;4951141;28;19925;-64
2021/07/14 09:20:34;;;;;;;4.03;2.80;;;;;;;18.96;66.65;99944.41;4945500;28;20028;-64
2021/07/14 09:23:32;;;;;;;6.55;2.70;;;;;;;18.97;65.96;99950.69;4948815;28;20042;-64
2021/07/14 09:26:03;;;;;;;2.90;2.20;;;;;;;19.05;66.36;99955.50;4947087;28;20401;-64
2021/07/14 09:28:32;;;;;;;4.00;2.42;;;;;;;19.02;66.01;99964.25;4958786;28;20500;-64
2021/07/14 09:31:04;;;;;;;4.40;2.60;;;;;;;19.05;66.15;99955.50;4946473;28;20044;-64
2021/07/14 09:33:30;;;;;;;5.28;2.50;;;;;;;19.36;65.41;99946.84;4953757;28;20098;-64
2021/07/14 09:35:58;;;;;;;3.53;2.40;;;;;;;19.81;63.49;99951.88;4951957;28;20031;-64
2021/07/14 09:38:34;;;;;;;7.22;3.00;;;;;;;19.93;64.06;99959.63;4953136;28;20032;-64
2021/07/14 09:41:00;;;;;;;3.05;2.15;;;;;;;19.97;61.79;99957.94;4949057;28;20134;-64
2021/07/14 09:43:43;;;;;;;2.85;1.83;;;;;;;20.04;62.42;99946.59;4956916;28;20038;-64
2021/07/14 09:46:10;;;;;;;6.50;2.47;;;;;;;20.34;62.31;99952.63;4940553;28;20082;-64
2021/07/14 09:48:47;;;;;;;14.90;2.53;;;;;;;20.48;61.79;99947.97;4956732;28;20053;-65
2021/07/14 09:51:21;;;;;;;3.38;2.30;;;;;;;20.47;62.11;99954.53;4951235;28;20515;-65
2021/07/14 09:53:52;;;;;;;8.05;3.15;;;;;;;20.62;60.91;99947.13;4951498;28;20127;-65
2021/07/14 09:56:23;;;;;;;4.85;2.35;;;;;;;20.46;61.21;99950.19;4951935;28;20037;-65
2021/07/14 09:59:05;;;;;;;7.55;2.40;;;;;;;20.49;60.90;99946.03;4957712;28;20039;-65
2021/07/14 10:01:48;;;;;;;3.22;2.03;;;;;;;20.18;60.26;99950.16;4951660;28;20038;-65
2021/07/14 10:04:23;;;;;;;;;;;;;;;19.96;61.41;99959.03;4946783;28;20043;-66
2021/07/14 10:06:48;;;;;;;;;;;;;;;19.80;61.38;99952.19;4954298;28;19974;-65
2021/07/14 10:09:23;;;;;;;5.95;2.20;;;;;;;19.85;62.45;99954.84;4952381;28;19922;-65
2021/07/14 10:11:49;;;;;;;8.88;2.03;;;;;;;19.85;62.00;99952.09;4939069;28;20659;-65
2021/07/14 10:14:14;;;;;;;3.75;2.03;;;;;;;20.00;61.15;99932.72;4941482;28;20130;-65
2021/07/14 10:16:42;;;;;;;4.13;2.00;;;;;;;20.12;61.80;99947.81;4959387;28;20027;-65
2021/07/14 10:19:13;;;;;;;4.30;1.95;;;;;;;20.17;60.64;99951.25;4964483;28;20039;-65
2021/07/14 10:21:41;;;;;;;2.42;1.92;;;;;;;20.04;61.55;99949.31;4963822;28;20039;-65
2021/07/14 10:24:10;;;;;;;9.25;2.10;;;;;;;20.03;60.75;99944.97;4965278;28;20081;-65
2021/07/14 10:26:38;;;;;;;5.55;1.90;;;;;;;20.06;59.68;99957.22;4960142;28;20039;-65
2021/07/14 10:29:04;;;;;;;3.17;1.90;;;;;;;20.22;60.27;99950.38;4956016;28;20046;-65
2021/07/14 10:31:30;;;;;;;3.67;1.90;;;;;;;20.12;60.36;99951.34;4954910;28;20035;-66
2021/07/14 10:33:56;;;;;;;3.85;2.20;;;;;;;20.16;60.61;99949.63;4969849;28;20031;-65
2021/07/14 10:36:28;;;;;;;5.97;1.90;;;;;;;20.38;60.35;99955.53;4968008;28;20031;-65
2021/07/14 10:38:58;;;;;;;2.97;1.90;;;;;;;20.68;60.33;99953.31;4955980;28;20036;-65
2021/07/14 10:41:27;;;;;;;3.40;1.75;;;;;;;20.74;59.46;99941.97;4961813;28;20039;-65
2021/07/14 10:43:55;;;;;;;2.63;1.70;;;;;;;20.88;59.15;99936.47;4956403;28;20034;-66
2021/07/14 10:46:23;;;;;;;6.57;1.90;;;;;;;20.79;59.98;99941.06;4948932;28;20169;-65
2021/07/14 10:48:50;;;;;;;5.20;1.80;;;;;;;21.17;59.56;99957.19;4948918;28;20070;-66
2021/07/14 10:51:15;;;;;;;2.80;1.55;;;;;;;21.18;57.95;99952.53;4951457;28;20030;-66
2021/07/14 10:53:44;;;;;;;3.65;2.00;;;;;;;21.12;58.55;99951.84;4951547;28;20446;-66
2021/07/14 10:56:12;;;;;;;3.42;2.00;;;;;;;20.99;58.54;99949.94;4951719;28;20110;-66
2021/07/14 10:58:39;;;;;;;5.03;1.83;;;;;;;20.97;58.48;99954.91;4952582;28;20051;-66
2021/07/14 11:01:05;;;;;;;11.23;2.90;;;;;;;20.85;57.54;99955.44;4956272;28;20023;-66
2021/07/14 11:03:33;;;;;;;11.70;1.63;;;;;;;21.04;57.62;99944.34;4609513;28;9999889;-65
2021/07/14 11:06:00;;;;;;;5.60;1.90;;;;;;;20.98;57.17;99945.59;4956273;28;20086;-66
2021/07/14 11:08:42;;;;;;;6.28;1.70;;;;;;;21.27;57.48;99944.41;4956868;28;20045;-66
2021/07/14 11:11:13;;;;;;;3.55;1.67;;;;;;;21.40;55.98;99938.06;4963503;28;20093;-66
2021/07/14 11:13:41;;;;;;;3.65;1.60;;;;;;;21.63;55.29;99952.59;4938816;28;20044;-66
2021/07/14 11:16:33;;;;;;;4.43;1.75;;;;;;;21.73;54.38;99950.72;4944011;28;20053;-66
2021/07/14 11:19:03;;;;;;;5.05;1.48;;;;;;;21.81;54.53;99952.69;4953420;28;20062;-67
2021/07/14 11:21:51;;;;;;;2.13;1.17;;;;;;;21.90;54.25;99955.50;4949805;28;21608;-67
2021/07/14 11:24:45;;;;;;;9.07;1.50;;;;;;;21.78;54.87;99951.41;4938527;28;20126;-67
2021/07/14 11:27:22;;;;;;;4.15;1.60;;;;;;;21.85;54.85;99967.41;4897485;29;20413;-67
2021/07/14 11:29:50;;;;;;;5.38;1.55;;;;;;;21.84;54.38;99957.56;4952253;28;20480;-67
2021/07/14 11:32:35;;;;;;;3.60;1.67;;;;;;;21.76;53.31;99950.09;4947612;28;20126;-66
2021/07/14 11:35:02;;;;;;;3.22;1.42;;;;;;;21.80;53.28;99959.31;4953336;28;20046;-66
2021/07/14 11:37:39;;;;;;;3.10;1.30;;;;;;;21.87;53.47;99969.84;4946227;28;20036;-66
2021/07/14 11:40:26;;;;;;;2.90;1.55;;;;;;;22.03;53.40;99962.00;4946378;28;20397;-66
2021/07/14 11:42:53;;;;;;;3.38;1.30;;;;;;;22.08;52.80;99957.22;4943536;28;20046;-68
2021/07/14 11:45:39;;;;;;;3.42;1.45;;;;;;;22.05;52.45;99965.25;4935392;28;20440;-67
2021/07/14 11:48:20;;;;;;;6.68;1.55;;;;;;;22.25;53.47;99966.66;4933759;28;20054;-67
2021/07/14 11:50:53;;;;;;;3.13;1.40;;;;;;;22.52;51.92;99975.81;4952384;28;20035;-67